createdAt,value
2022-11-22T00:00:44.885Z,97866.30
2022-11-22T00:03:51.142Z,97859.91
2022-11-22T00:06:57.234Z,97857.51
2022-11-22T00:10:03.324Z,97857.56
2022-11-22T00:13:09.482Z,97853.45
2022-11-22T00:16:15.617Z,97848.98
2022-11-22T00:19:21.789Z,97846.67
2022-11-22T00:22:28.087Z,97847.90
2022-11-22T00:25:32.837Z,97847.23
2022-11-22T00:28:39.078Z,97850.00
2022-11-22T00:31:45.043Z,97856.77
2022-11-22T00:34:51.206Z,97853.33
2022-11-22T00:37:57.314Z,97852.45
2022-11-22T00:41:03.747Z,97847.79
2022-11-22T00:44:09.745Z,97850.16
2022-11-22T00:47:15.827Z,97857.79
2022-11-22T00:50:22.029Z,97858.73
2022-11-22T00:53:28.187Z,97854.73
2022-11-22T00:56:34.299Z,97858.42
2022-11-22T00:59:40.426Z,97861.40
2022-11-22T01:02:46.487Z,97861.11
2022-11-22T01:05:52.681Z,97867.63
2022-11-22T01:08:59.000Z,97867.46
2022-11-22T01:12:03.543Z,97872.29
2022-11-22T01:15:11.122Z,97873.65
2022-11-22T01:18:17.088Z,97881.16
2022-11-22T01:21:23.199Z,97886.70
2022-11-22T01:24:29.423Z,97877.75
2022-11-22T01:27:35.902Z,97878.50
2022-11-22T01:30:42.238Z,97877.83
2022-11-22T01:33:46.781Z,97888.16
2022-11-22T01:36:52.978Z,97893.77
2022-11-22T01:39:59.013Z,97894.89
2022-11-22T01:43:11.853Z,97893.98
2022-11-22T01:46:28.858Z,97895.39
2022-11-22T01:49:40.105Z,97897.21
2022-11-22T01:52:46.300Z,97902.38
2022-11-22T01:55:55.177Z,97902.04
2022-11-22T01:59:06.811Z,97896.33
2022-11-22T02:02:14.114Z,97897.19
2022-11-22T02:05:24.054Z,97902.55
2022-11-22T02:08:37.174Z,97902.98
2022-11-22T02:11:45.979Z,97905.03
2022-11-22T02:14:53.650Z,97897.64
2022-11-22T02:18:01.044Z,97895.52
2022-11-22T02:21:07.789Z,97887.62
2022-11-22T02:24:20.825Z,97880.43
2022-11-22T02:27:26.982Z,97876.72
2022-11-22T02:30:33.113Z,97872.99
2022-11-22T02:33:39.141Z,97864.55
2022-11-22T02:36:50.286Z,97861.60
2022-11-22T02:40:00.400Z,97861.20
2022-11-22T02:43:09.946Z,97863.06
2022-11-22T02:46:20.829Z,97858.38
2022-11-22T02:49:28.571Z,97857.64
2022-11-22T02:52:34.967Z,97855.31
2022-11-22T02:55:41.813Z,97852.01
2022-11-22T02:58:48.159Z,97847.90
2022-11-22T03:01:52.971Z,97846.46
2022-11-22T03:04:59.038Z,97847.97
2022-11-22T03:08:05.049Z,97849.92
2022-11-22T03:11:11.333Z,97851.17
2022-11-22T03:14:16.574Z,97847.78
2022-11-22T03:17:22.649Z,97846.02
2022-11-22T03:20:29.156Z,97847.12
2022-11-22T03:23:35.500Z,97845.95
2022-11-22T03:26:40.028Z,97840.30
2022-11-22T03:29:46.156Z,97837.48
2022-11-22T03:32:52.230Z,97838.16
2022-11-22T03:36:00.180Z,97838.13
2022-11-22T03:39:06.414Z,97842.63
2022-11-22T03:42:16.708Z,97841.44
2022-11-22T03:45:25.885Z,97841.23
2022-11-22T03:48:32.048Z,97837.21
2022-11-22T03:51:38.077Z,97839.54
2022-11-22T03:54:44.165Z,97838.67
2022-11-22T03:57:50.245Z,97845.06
2022-11-22T04:00:57.094Z,97845.41
2022-11-22T04:04:03.198Z,97844.02
2022-11-22T04:07:09.239Z,97844.77
2022-11-22T04:10:20.797Z,97842.98
2022-11-22T04:13:48.553Z,97846.83
2022-11-22T04:16:54.616Z,97847.13
2022-11-22T04:20:22.873Z,97849.79
2022-11-22T04:23:34.026Z,97851.47
2022-11-22T04:26:40.999Z,97845.08
2022-11-22T04:29:47.149Z,97842.92
2022-11-22T04:32:55.336Z,97842.23
2022-11-22T04:36:01.452Z,97837.36
2022-11-22T04:39:07.609Z,97839.29
2022-11-22T04:42:31.538Z,97837.35
2022-11-22T04:45:37.842Z,97838.83
2022-11-22T04:48:42.293Z,97833.27
2022-11-22T04:52:05.903Z,97825.67
2022-11-22T04:55:12.138Z,97823.54
2022-11-22T04:58:18.765Z,97820.65
2022-11-22T05:01:25.113Z,97820.23
2022-11-22T05:04:31.290Z,97819.20
2022-11-22T05:07:38.099Z,97820.73
2022-11-22T05:11:00.104Z,97822.95
2022-11-22T05:14:06.266Z,97823.30
2022-11-22T05:17:13.567Z,97826.55
2022-11-22T05:20:20.227Z,97831.34
2022-11-22T05:23:42.560Z,97827.89
2022-11-22T05:26:48.797Z,97827.08
2022-11-22T05:29:53.148Z,97827.23
2022-11-22T05:32:59.288Z,97829.54
2022-11-22T05:36:05.956Z,97827.50
2022-11-22T05:39:12.012Z,97827.09
2022-11-22T05:42:18.321Z,97824.70
2022-11-22T05:45:22.745Z,97821.78
2022-11-22T05:48:29.720Z,97825.39
2022-11-22T05:51:35.802Z,97826.32
2022-11-22T05:54:41.876Z,97815.44
2022-11-22T05:57:47.957Z,97819.02
2022-11-22T06:00:54.068Z,97831.25
2022-11-22T06:04:00.134Z,97835.63
2022-11-22T06:07:09.996Z,97834.39
2022-11-22T06:10:17.132Z,97833.44
2022-11-22T06:13:23.546Z,97830.84
2022-11-22T06:16:30.069Z,97830.50
2022-11-22T06:19:36.083Z,97831.56
2022-11-22T06:22:42.237Z,97833.77
2022-11-22T06:25:46.759Z,97838.61
2022-11-22T06:28:53.065Z,97835.61
2022-11-22T06:32:01.999Z,97837.32
2022-11-22T06:35:10.776Z,97837.65
2022-11-22T06:38:16.998Z,97838.68
2022-11-22T06:41:25.629Z,97838.20
2022-11-22T06:44:31.695Z,97843.56
2022-11-22T06:47:37.646Z,97846.45
2022-11-22T06:50:43.662Z,97850.98
2022-11-22T06:53:50.886Z,97850.88
2022-11-22T06:56:56.995Z,97847.51
2022-11-22T07:00:03.359Z,97848.02
2022-11-22T07:03:09.450Z,97848.15
2022-11-22T07:06:16.777Z,97851.38
2022-11-22T07:09:23.000Z,97852.36
2022-11-22T07:12:29.409Z,97852.77
2022-11-22T07:15:35.542Z,97849.36
2022-11-22T07:18:42.064Z,97846.76
2022-11-22T07:21:49.689Z,97850.14
2022-11-22T07:24:55.818Z,97850.77
2022-11-22T07:28:01.872Z,97854.08
2022-11-22T07:31:09.495Z,97857.77
2022-11-22T07:34:15.716Z,97863.86
2022-11-22T07:37:21.737Z,97868.84
2022-11-22T07:40:28.303Z,97867.63
2022-11-22T07:43:34.745Z,97868.51
2022-11-22T07:46:40.788Z,97869.16
2022-11-22T07:49:46.811Z,97869.59
2022-11-22T07:52:59.280Z,97872.29
2022-11-22T07:56:06.453Z,97862.98
2022-11-22T07:59:12.518Z,97854.35
2022-11-22T08:02:18.734Z,97848.89
2022-11-22T08:05:24.885Z,97847.36
2022-11-22T08:08:31.670Z,97842.98
2022-11-22T08:11:38.466Z,97843.69
2022-11-22T08:14:44.629Z,97851.93
2022-11-22T08:17:50.772Z,97862.94
2022-11-22T08:21:05.059Z,97856.13
2022-11-22T08:24:11.517Z,97844.01
2022-11-22T08:27:17.640Z,97851.55
2022-11-22T08:30:23.786Z,97856.95
2022-11-22T08:33:29.955Z,97847.06
2022-11-22T08:36:35.964Z,97843.00
2022-11-22T08:39:42.079Z,97847.65
2022-11-22T08:42:48.170Z,97854.63
2022-11-22T08:45:58.007Z,97865.33
2022-11-22T08:49:06.641Z,97872.80
2022-11-22T08:52:12.752Z,97880.68
2022-11-22T08:55:18.968Z,97886.70
2022-11-22T08:58:25.582Z,97883.66
2022-11-22T09:01:31.685Z,97870.89
2022-11-22T09:04:37.768Z,97866.39
2022-11-22T09:11:11.841Z,97870.30
2022-11-22T09:14:18.019Z,97865.84
2022-11-22T09:17:24.033Z,97862.49
2022-11-22T09:20:30.229Z,97861.48
2022-11-22T09:23:36.977Z,97865.06
2022-11-22T09:26:43.268Z,97863.91
2022-11-22T09:29:47.728Z,97859.38
2022-11-22T09:32:53.884Z,97858.05
2022-11-22T09:36:04.913Z,97855.06
2022-11-22T09:39:11.372Z,97856.98
2022-11-22T09:42:44.692Z,97860.87
2022-11-22T09:46:04.261Z,97858.95
2022-11-22T09:49:23.135Z,97855.81
2022-11-22T09:52:36.122Z,97855.58
2022-11-22T09:55:45.945Z,97844.70
2022-11-22T09:58:56.353Z,97846.95
2022-11-22T10:02:18.138Z,97848.21
2022-11-22T10:05:29.244Z,97847.30
2022-11-22T10:08:41.950Z,97844.30
2022-11-22T10:11:50.640Z,97838.27
2022-11-22T10:15:03.100Z,97837.16
2022-11-22T10:18:19.408Z,97835.98
2022-11-22T10:21:25.582Z,97835.14
2022-11-22T10:24:32.354Z,97834.26
2022-11-22T10:27:39.955Z,97838.41
2022-11-22T10:30:55.127Z,97843.44
2022-11-22T10:34:07.905Z,97845.48
2022-11-22T10:37:22.915Z,97842.64
2022-11-22T10:40:39.095Z,97841.59
2022-11-22T10:43:47.745Z,97839.67
2022-11-22T10:47:07.007Z,97838.80
2022-11-22T10:50:18.479Z,97844.30
2022-11-22T10:53:32.790Z,97842.14
2022-11-22T10:56:47.278Z,97836.96
2022-11-22T11:00:04.477Z,97841.36
2022-11-22T11:03:19.808Z,97837.80
2022-11-22T11:06:57.065Z,97833.35
2022-11-22T11:10:13.716Z,97826.33
2022-11-22T11:13:28.375Z,97821.33
2022-11-22T11:16:38.425Z,97813.20
2022-11-22T11:19:48.996Z,97811.18
2022-11-22T11:26:28.609Z,97810.55
2022-11-22T11:29:52.360Z,97813.54
2022-11-22T11:32:59.641Z,97815.34
2022-11-22T11:36:10.872Z,97817.13
2022-11-22T11:39:24.725Z,97820.38
2022-11-22T11:42:33.409Z,97825.02
2022-11-22T11:45:39.712Z,97826.91
2022-11-22T11:48:44.186Z,97821.23
2022-11-22T11:51:55.050Z,97813.48
2022-11-22T11:55:03.677Z,97811.33
2022-11-22T11:58:22.006Z,97811.66
2022-11-22T12:01:28.625Z,97808.83
2022-11-22T12:04:37.537Z,97807.02
2022-11-22T12:07:45.792Z,97798.30
2022-11-22T12:10:58.425Z,97793.48
2022-11-22T12:14:22.479Z,97789.77
2022-11-22T12:17:31.971Z,97785.65
2022-11-22T12:20:52.394Z,97781.16
2022-11-22T12:24:34.428Z,97775.36
2022-11-22T12:27:30.760Z,97769.86
2022-11-22T12:30:38.917Z,97763.17
2022-11-22T12:33:48.169Z,97759.57
2022-11-22T12:37:01.462Z,97760.11
2022-11-22T12:40:15.998Z,97757.48
2022-11-22T12:43:26.312Z,97754.23
2022-11-22T12:46:40.026Z,97751.00
2022-11-22T12:49:48.635Z,97742.44
2022-11-22T12:52:59.675Z,97740.70
2022-11-22T12:56:18.100Z,97735.02
2022-11-22T12:59:35.669Z,97734.80
2022-11-22T13:02:46.825Z,97735.00
2022-11-22T13:05:56.193Z,97731.23
2022-11-22T13:09:06.400Z,97733.85
2022-11-22T13:12:15.837Z,97731.48
2022-11-22T13:15:29.787Z,97730.86
2022-11-22T13:18:40.050Z,97730.90
2022-11-22T13:22:00.449Z,97733.91
2022-11-22T13:25:32.069Z,97734.65
2022-11-22T13:28:40.508Z,97730.25
2022-11-22T13:32:20.133Z,97729.13
2022-11-22T13:35:32.955Z,97728.89
2022-11-22T13:38:39.566Z,97723.27
2022-11-22T13:41:53.574Z,97722.11
2022-11-22T13:45:23.745Z,97721.65
2022-11-22T13:49:04.414Z,97720.08
2022-11-22T13:52:30.996Z,97726.33
2022-11-22T13:55:42.508Z,97722.81
2022-11-22T13:58:55.765Z,97717.77
2022-11-22T14:02:03.694Z,97720.94
2022-11-22T14:05:22.228Z,97725.95
2022-11-22T14:08:34.748Z,97722.58
2022-11-22T14:11:52.092Z,97717.70
2022-11-22T14:15:24.823Z,97711.84
2022-11-22T14:19:01.129Z,97709.41
2022-11-22T14:22:21.646Z,97709.39
2022-11-22T14:25:56.570Z,97714.18
2022-11-22T14:29:32.222Z,97716.87
2022-11-22T14:33:04.482Z,97715.73
2022-11-22T14:36:20.022Z,97718.20
2022-11-22T14:40:07.724Z,97724.08
2022-11-22T14:43:35.293Z,97728.20
2022-11-22T14:46:53.230Z,97731.77
2022-11-22T14:50:01.973Z,97731.12
2022-11-22T14:53:20.152Z,97729.66
2022-11-22T14:56:31.156Z,97723.95
2022-11-22T14:59:59.885Z,97726.33
2022-11-22T15:03:41.367Z,97726.03
2022-11-22T15:09:21.983Z,97725.65
2022-11-22T15:59:53.802Z,97758.08
2022-11-22T16:03:03.017Z,97760.27
2022-11-22T16:06:15.336Z,97763.23
2022-11-22T16:09:28.171Z,97766.38
2022-11-22T16:12:39.626Z,97767.20
2022-11-22T16:15:46.001Z,97768.63
2022-11-22T16:18:50.929Z,97767.65
2022-11-22T16:22:01.057Z,97770.01
2022-11-22T16:25:33.252Z,97768.69
2022-11-22T16:28:40.088Z,97764.52
2022-11-22T16:31:46.456Z,97765.30
2022-11-22T16:35:03.111Z,97764.11
2022-11-22T16:38:16.730Z,97766.71
2022-11-22T16:41:25.283Z,97775.27
2022-11-22T16:44:31.419Z,97780.59
2022-11-22T16:47:37.528Z,97788.58
2022-11-22T16:50:43.706Z,97793.70
2022-11-22T16:53:51.200Z,97793.59
2022-11-22T16:56:57.288Z,97793.67
2022-11-22T17:00:03.520Z,97787.71
2022-11-22T17:03:14.634Z,97786.70
2022-11-22T17:06:22.684Z,97786.66
2022-11-22T17:09:29.090Z,97784.84
2022-11-22T17:12:35.251Z,97783.68
2022-11-22T17:15:43.899Z,97783.88
2022-11-22T17:18:50.314Z,97789.80
2022-11-22T17:21:54.767Z,97788.19
2022-11-22T17:25:00.840Z,97781.92
2022-11-22T17:28:06.969Z,97781.68
2022-11-22T17:31:15.996Z,97782.16
2022-11-22T17:34:22.016Z,97781.70
2022-11-22T17:37:29.573Z,97783.74
2022-11-22T17:40:36.134Z,97785.39
2022-11-22T17:43:42.146Z,97787.02
2022-11-22T17:46:48.346Z,97790.05
2022-11-22T17:49:54.442Z,97788.35
2022-11-22T17:53:00.588Z,97796.16
2022-11-22T17:56:11.204Z,97801.89
2022-11-22T17:59:17.840Z,97797.08
2022-11-22T18:02:24.039Z,97794.08
2022-11-22T18:05:30.602Z,97793.02
2022-11-22T18:08:36.868Z,97794.35
2022-11-22T18:11:43.646Z,97792.25
2022-11-22T18:14:49.793Z,97795.30
2022-11-22T18:17:55.869Z,97800.50
2022-11-22T18:21:01.955Z,97799.04
2022-11-22T18:24:08.677Z,97798.58
2022-11-22T18:27:14.686Z,97798.50
2022-11-22T18:30:20.905Z,97804.44
2022-11-22T18:33:30.653Z,97808.27
2022-11-22T18:37:01.311Z,97811.71
2022-11-22T18:40:09.349Z,97815.09
2022-11-22T18:43:15.396Z,97808.39
2022-11-22T18:46:21.568Z,97805.58
2022-11-22T18:49:27.572Z,97810.98
2022-11-22T18:52:35.210Z,97813.83
2022-11-22T18:55:41.386Z,97811.02
2022-11-22T18:58:47.657Z,97808.11
2022-11-22T19:01:52.185Z,97810.96
2022-11-22T19:04:58.480Z,97811.79
2022-11-22T19:08:03.069Z,97812.27
2022-11-22T19:11:09.932Z,97809.73
2022-11-22T19:14:16.009Z,97809.27
2022-11-22T19:17:22.260Z,97813.42
2022-11-22T19:20:47.780Z,97811.10
2022-11-22T19:23:53.097Z,97812.18
2022-11-22T19:26:57.526Z,97816.71
2022-11-22T19:30:03.625Z,97815.69
2022-11-22T19:33:09.747Z,97822.41
2022-11-22T19:36:17.333Z,97819.80
2022-11-22T19:39:23.358Z,97823.11
2022-11-22T19:42:33.560Z,97819.63
2022-11-22T19:45:39.558Z,97823.05
2022-11-22T19:48:47.360Z,97828.55
2022-11-22T19:51:53.577Z,97824.48
2022-11-22T19:54:59.705Z,97825.45
2022-11-22T19:58:06.320Z,97832.41
2022-11-22T20:01:14.293Z,97838.42
2022-11-22T20:04:20.521Z,97838.39
2022-11-22T20:07:26.522Z,97843.91
2022-11-22T20:10:32.744Z,97842.98
2022-11-22T20:13:40.146Z,97843.29
2022-11-22T20:16:47.038Z,97842.42
2022-11-22T20:19:52.905Z,97846.56
2022-11-22T20:22:59.073Z,97849.27
2022-11-22T20:26:06.642Z,97846.30
2022-11-22T20:29:16.097Z,97843.55
2022-11-22T20:32:23.222Z,97838.42
2022-11-22T20:35:29.253Z,97833.80
2022-11-22T20:38:37.120Z,97829.59
2022-11-22T20:41:43.438Z,97830.17
2022-11-22T20:44:48.065Z,97836.34
2022-11-22T20:47:54.190Z,97842.09
2022-11-22T20:51:00.891Z,97846.54
2022-11-22T20:54:07.957Z,97844.83
2022-11-22T20:57:13.922Z,97842.05
2022-11-22T21:00:21.864Z,97839.20
2022-11-22T21:03:28.458Z,97834.79
2022-11-22T21:06:35.174Z,97834.15
2022-11-22T21:09:41.293Z,97841.73
2022-11-22T21:12:47.402Z,97842.33
2022-11-22T21:16:00.741Z,97845.64
2022-11-22T21:19:07.019Z,97843.22
2022-11-22T21:22:11.493Z,97846.00
2022-11-22T21:25:17.705Z,97855.95
2022-11-22T21:28:23.949Z,97858.38
2022-11-22T21:31:28.694Z,97860.56
2022-11-22T21:34:34.694Z,97857.94
2022-11-22T21:37:42.034Z,97861.16
2022-11-22T21:41:05.621Z,97862.45
2022-11-22T21:44:20.462Z,97859.27
2022-11-22T21:47:26.893Z,97859.45
2022-11-22T21:50:32.868Z,97856.93
2022-11-22T21:53:38.910Z,97859.45
2022-11-22T21:56:44.998Z,97860.89
2022-11-22T21:59:51.087Z,97861.57
2022-11-22T22:02:57.413Z,97856.65
2022-11-22T22:06:01.949Z,97852.87
2022-11-22T22:09:07.887Z,97852.29
2022-11-22T22:12:13.848Z,97849.95
2022-11-22T22:15:20.127Z,97849.84
2022-11-22T22:18:24.432Z,97851.57
2022-11-22T22:21:30.370Z,97854.55
2022-11-22T22:24:36.338Z,97857.36
2022-11-22T22:27:42.333Z,97858.17
2022-11-22T22:30:48.214Z,97854.61
2022-11-22T22:33:56.409Z,97856.66
2022-11-22T22:37:02.385Z,97860.12
2022-11-22T22:40:09.972Z,97863.55
2022-11-22T22:43:16.089Z,97858.64
2022-11-22T22:46:24.777Z,97860.27
2022-11-22T22:49:31.320Z,97863.14
2022-11-22T22:52:38.137Z,97864.73
2022-11-22T22:55:44.193Z,97856.26
2022-11-22T22:58:54.514Z,97851.83
2022-11-22T23:02:00.363Z,97854.26
2022-11-22T23:05:07.335Z,97857.09
2022-11-22T23:08:13.559Z,97863.07
2022-11-22T23:11:23.034Z,97860.99
2022-11-22T23:14:30.454Z,97860.69
2022-11-22T23:17:36.378Z,97856.84
2022-11-22T23:20:42.404Z,97855.55
2022-11-22T23:23:48.464Z,97858.83
2022-11-22T23:26:54.868Z,97858.84
2022-11-22T23:29:59.337Z,97860.70
2022-11-22T23:33:05.261Z,97858.73
2022-11-22T23:36:13.820Z,97861.42
2022-11-22T23:39:20.101Z,97860.83
2022-11-22T23:42:24.515Z,97859.42
2022-11-22T23:45:30.541Z,97854.77
2022-11-22T23:48:36.493Z,97848.73
2022-11-22T23:51:42.569Z,97849.59
2022-11-22T23:54:48.605Z,97852.20
2022-11-22T23:57:54.614Z,97850.90
